createdAt,value
2023-04-23T00:00:49.063Z,7.13
2023-04-23T00:02:23.120Z,9.50
2023-04-23T00:03:58.095Z,7.43
2023-04-23T00:05:33.104Z,5.47
2023-04-23T00:07:05.245Z,9.35
2023-04-23T00:08:41.309Z,7.78
2023-04-23T00:10:13.277Z,7.43
2023-04-23T00:11:45.476Z,8.10
2023-04-23T00:13:17.498Z,7.78
2023-04-23T00:14:49.258Z,9.02
2023-04-23T00:16:21.419Z,7.93
2023-04-23T00:17:54.173Z,8.70
2023-04-23T00:19:26.018Z,6.55
2023-04-23T00:20:58.183Z,7.32
2023-04-23T00:22:29.791Z,8.43
2023-04-23T00:24:01.465Z,4.93
2023-04-23T00:25:33.062Z,6.68
2023-04-23T00:27:04.700Z,8.13
2023-04-23T00:28:36.383Z,5.88
2023-04-23T00:30:09.124Z,6.05
2023-04-23T00:31:40.796Z,6.75
2023-04-23T00:33:12.530Z,6.78
2023-04-23T00:34:44.345Z,8.95
2023-04-23T00:36:15.908Z,7.25
2023-04-23T00:37:47.597Z,6.38
2023-04-23T00:39:19.248Z,8.93
2023-04-23T00:40:50.936Z,7.80
2023-04-23T00:42:22.602Z,9.13
2023-04-23T00:43:54.534Z,5.25
2023-04-23T00:45:27.163Z,7.43
2023-04-23T00:47:00.499Z,7.20
2023-04-23T00:48:34.698Z,8.48
2023-04-23T00:50:08.185Z,7.05
2023-04-23T00:51:39.891Z,6.57
2023-04-23T00:53:11.511Z,10.65
2023-04-23T00:54:43.461Z,8.85
2023-04-23T00:56:15.934Z,7.93
2023-04-23T00:57:48.267Z,6.20
2023-04-23T00:59:20.605Z,7.43
2023-04-23T01:00:52.792Z,7.97
2023-04-23T01:02:28.063Z,6.78
2023-04-23T01:04:00.215Z,6.43
2023-04-23T01:05:32.291Z,6.68
2023-04-23T01:07:04.146Z,6.28
2023-04-23T01:08:36.407Z,6.90
2023-04-23T01:10:09.131Z,8.68
2023-04-23T01:11:43.125Z,5.55
2023-04-23T01:13:15.259Z,7.97
2023-04-23T01:14:46.944Z,5.63
2023-04-23T01:16:19.026Z,7.55
2023-04-23T01:17:51.586Z,6.00
2023-04-23T01:19:23.367Z,6.20
2023-04-23T01:20:55.810Z,7.05
2023-04-23T01:22:27.730Z,7.25
2023-04-23T01:24:00.203Z,7.05
2023-04-23T01:25:32.176Z,7.05
2023-04-23T01:27:04.404Z,7.50
2023-04-23T01:28:37.232Z,6.90
2023-04-23T01:30:09.854Z,6.63
2023-04-23T01:31:42.586Z,8.18
2023-04-23T01:33:15.524Z,7.03
2023-04-23T01:34:48.274Z,6.05
2023-04-23T01:36:21.216Z,7.18
2023-04-23T01:37:57.435Z,9.60
2023-04-23T01:39:29.175Z,4.15
2023-04-23T01:41:00.803Z,6.05
2023-04-23T01:42:33.063Z,4.38
2023-04-23T01:44:05.278Z,6.25
2023-04-23T01:45:37.354Z,5.75
2023-04-23T01:47:09.373Z,7.68
2023-04-23T01:48:41.512Z,4.28
2023-04-23T01:50:13.464Z,3.78
2023-04-23T01:51:46.434Z,2.83
2023-04-23T01:53:18.962Z,4.20
2023-04-23T01:54:50.868Z,3.33
2023-04-23T01:56:28.629Z,2.88
2023-04-23T01:58:00.783Z,3.67
2023-04-23T01:59:32.405Z,2.72
2023-04-23T02:01:04.139Z,3.20
2023-04-23T02:02:36.431Z,3.95
2023-04-23T02:04:08.589Z,3.05
2023-04-23T02:05:41.595Z,3.53
2023-04-23T02:07:13.399Z,3.25
2023-04-23T02:08:45.210Z,3.47
2023-04-23T02:10:17.325Z,4.40
2023-04-23T02:11:49.113Z,5.95
2023-04-23T02:13:20.997Z,4.28
2023-04-23T02:14:53.701Z,4.07
2023-04-23T02:16:26.706Z,4.22
2023-04-23T02:17:58.673Z,3.47
2023-04-23T02:19:34.491Z,3.45
2023-04-23T02:21:06.467Z,3.22
2023-04-23T02:22:40.967Z,3.90
2023-04-23T02:24:12.922Z,4.47
2023-04-23T02:25:44.607Z,3.72
2023-04-23T02:27:19.546Z,3.28
2023-04-23T02:28:51.385Z,2.78
2023-04-23T02:30:23.180Z,3.75
2023-04-23T02:31:54.889Z,3.33
2023-04-23T02:33:26.637Z,3.15
2023-04-23T02:35:02.054Z,4.35
2023-04-23T02:36:33.766Z,3.70
2023-04-23T02:38:05.419Z,3.45
2023-04-23T02:39:39.230Z,2.85
2023-04-23T02:41:12.241Z,2.90
2023-04-23T02:42:44.069Z,3.20
2023-04-23T02:44:15.774Z,4.28
2023-04-23T02:45:47.397Z,5.70
2023-04-23T02:47:19.231Z,4.55
2023-04-23T02:48:51.106Z,7.10
2023-04-23T02:50:22.849Z,3.63
2023-04-23T02:51:54.584Z,4.50
2023-04-23T02:53:26.432Z,5.50
2023-04-23T02:54:58.448Z,3.97
2023-04-23T02:56:30.228Z,6.70
2023-04-23T02:58:01.916Z,4.13
2023-04-23T02:59:34.575Z,3.70
2023-04-23T03:01:07.142Z,4.05
2023-04-23T03:02:38.873Z,6.07
2023-04-23T03:04:10.769Z,3.72
2023-04-23T03:05:42.672Z,4.32
2023-04-23T03:07:17.380Z,4.45
2023-04-23T03:08:48.970Z,3.83
2023-04-23T03:10:20.769Z,3.95
2023-04-23T03:11:52.880Z,5.72
2023-04-23T03:13:26.056Z,4.13
2023-04-23T03:14:57.803Z,4.15
2023-04-23T03:16:32.003Z,3.78
2023-04-23T03:18:04.518Z,3.95
2023-04-23T03:19:36.282Z,6.63
2023-04-23T03:21:08.247Z,3.30
2023-04-23T03:22:40.033Z,5.07
2023-04-23T03:24:13.563Z,4.82
2023-04-23T03:25:45.276Z,6.35
2023-04-23T03:27:17.027Z,4.15
2023-04-23T03:28:48.662Z,4.28
2023-04-23T03:30:20.562Z,4.32
2023-04-23T03:31:52.386Z,4.78
2023-04-23T03:33:24.280Z,5.55
2023-04-23T03:34:55.867Z,4.45
2023-04-23T03:36:28.006Z,5.05
2023-04-23T03:37:59.676Z,6.95
2023-04-23T03:39:31.447Z,5.00
2023-04-23T03:41:03.199Z,5.15
2023-04-23T03:42:35.068Z,6.97
2023-04-23T03:44:08.615Z,5.63
2023-04-23T03:45:46.170Z,6.07
2023-04-23T03:47:17.848Z,6.35
2023-04-23T03:48:49.769Z,5.68
2023-04-23T03:50:31.856Z,6.18
2023-04-23T03:52:17.048Z,5.80
2023-04-23T03:53:49.184Z,5.80
2023-04-23T03:55:49.817Z,5.35
2023-04-23T03:57:21.957Z,6.22
2023-04-23T03:59:00.318Z,4.55
2023-04-23T04:00:31.968Z,6.15
2023-04-23T04:02:06.558Z,5.72
2023-04-23T04:03:38.386Z,10.00
2023-04-23T04:05:13.269Z,5.97
2023-04-23T04:06:45.416Z,5.38
2023-04-23T04:08:16.959Z,5.93
2023-04-23T04:09:49.300Z,5.82
2023-04-23T04:11:21.034Z,4.60
2023-04-23T04:12:52.843Z,5.85
2023-04-23T04:14:24.468Z,5.68
2023-04-23T04:15:56.067Z,4.45
2023-04-23T04:17:27.713Z,7.88
2023-04-23T04:18:59.383Z,7.10
2023-04-23T04:20:31.017Z,5.18
2023-04-23T04:22:03.698Z,7.70
2023-04-23T04:23:35.948Z,6.47
2023-04-23T04:25:08.114Z,7.05
2023-04-23T04:26:40.119Z,5.97
2023-04-23T04:28:12.019Z,6.22
2023-04-23T04:29:43.605Z,4.95
2023-04-23T04:31:16.095Z,8.57
2023-04-23T04:32:50.959Z,8.50
2023-04-23T04:34:23.373Z,5.47
2023-04-23T04:35:56.574Z,7.90
2023-04-23T04:37:28.223Z,6.15
2023-04-23T04:39:00.701Z,5.97
2023-04-23T04:40:34.705Z,7.13
2023-04-23T04:42:07.297Z,4.50
2023-04-23T04:43:40.135Z,6.22
2023-04-23T04:45:12.199Z,7.25
2023-04-23T04:46:43.793Z,8.48
2023-04-23T04:48:15.465Z,5.32
2023-04-23T04:49:47.176Z,5.82
2023-04-23T04:51:18.853Z,6.22
2023-04-23T04:52:50.482Z,5.00
2023-04-23T04:54:22.098Z,6.75
2023-04-23T04:55:53.628Z,4.90
2023-04-23T04:57:25.300Z,4.78
2023-04-23T04:58:56.966Z,5.85
2023-04-23T05:00:29.995Z,6.85
2023-04-23T05:02:01.623Z,6.00
2023-04-23T05:03:33.322Z,8.30
2023-04-23T05:05:07.585Z,7.97
2023-04-23T05:06:39.251Z,5.53
2023-04-23T05:08:11.528Z,5.28
2023-04-23T05:09:45.029Z,6.97
2023-04-23T05:11:18.700Z,7.15
2023-04-23T05:12:51.839Z,5.28
2023-04-23T05:14:25.977Z,6.00
2023-04-23T05:15:57.571Z,5.07
2023-04-23T05:17:29.191Z,4.85
2023-04-23T05:19:00.876Z,5.15
2023-04-23T05:20:32.763Z,5.18
2023-04-23T05:22:04.382Z,5.60
2023-04-23T05:23:36.613Z,5.40
2023-04-23T05:25:09.527Z,7.20
2023-04-23T05:26:41.230Z,4.55
2023-04-23T05:28:13.157Z,4.55
2023-04-23T05:29:44.868Z,6.22
2023-04-23T05:31:16.514Z,4.00
2023-04-23T05:32:48.197Z,4.70
2023-04-23T05:34:19.784Z,4.30
2023-04-23T05:35:51.494Z,6.20
2023-04-23T05:37:23.111Z,4.60
2023-04-23T05:38:54.694Z,3.63
2023-04-23T05:40:26.345Z,4.68
2023-04-23T05:41:58.135Z,4.70
2023-04-23T05:43:29.777Z,6.70
2023-04-23T05:45:01.585Z,5.22
2023-04-23T05:46:33.187Z,4.55
2023-04-23T05:48:04.980Z,4.25
2023-04-23T05:49:36.732Z,3.80
2023-04-23T05:51:08.577Z,4.10
2023-04-23T05:52:40.115Z,4.05
2023-04-23T05:54:11.645Z,4.15
2023-04-23T05:55:43.262Z,5.18
2023-04-23T05:57:14.897Z,5.15
2023-04-23T05:58:46.506Z,4.20
2023-04-23T06:00:18.333Z,3.80
2023-04-23T06:01:50.413Z,4.20
2023-04-23T06:03:22.206Z,4.57
2023-04-23T06:04:54.118Z,4.78
2023-04-23T06:06:26.147Z,5.10
2023-04-23T06:07:57.786Z,4.47
2023-04-23T06:09:29.352Z,4.15
2023-04-23T06:11:01.961Z,6.30
2023-04-23T06:12:33.552Z,5.50
2023-04-23T06:14:05.455Z,4.35
2023-04-23T06:15:36.975Z,5.13
2023-04-23T06:17:08.501Z,5.57
2023-04-23T06:18:40.250Z,5.18
2023-04-23T06:20:12.144Z,5.50
2023-04-23T06:21:43.831Z,4.80
2023-04-23T06:23:15.433Z,3.63
2023-04-23T06:24:47.008Z,3.80
2023-04-23T06:26:18.607Z,3.70
2023-04-23T06:27:52.186Z,3.90
2023-04-23T06:29:27.972Z,4.25
2023-04-23T06:31:07.879Z,4.35
2023-04-23T06:32:39.641Z,3.80
2023-04-23T06:34:11.243Z,4.22
2023-04-23T06:35:42.792Z,4.43
2023-04-23T06:37:14.460Z,4.28
2023-04-23T06:38:46.238Z,4.63
2023-04-23T06:40:17.855Z,3.33
2023-04-23T06:41:49.526Z,3.25
2023-04-23T06:43:34.288Z,2.70
2023-04-23T06:45:25.305Z,5.20
2023-04-23T06:46:56.873Z,3.08
2023-04-23T06:48:28.443Z,3.95
2023-04-23T06:50:00.320Z,3.58
2023-04-23T06:51:32.147Z,3.83
2023-04-23T06:53:03.840Z,3.63
2023-04-23T06:54:35.482Z,2.97
2023-04-23T06:56:07.920Z,3.47
2023-04-23T06:57:39.503Z,4.82
2023-04-23T06:59:11.508Z,3.28
2023-04-23T07:00:52.317Z,4.28
2023-04-23T07:02:24.167Z,3.30
2023-04-23T07:03:55.900Z,3.95
2023-04-23T07:05:28.244Z,3.45
2023-04-23T07:07:00.394Z,3.08
2023-04-23T07:08:32.039Z,4.07
2023-04-23T07:10:05.054Z,2.75
2023-04-23T07:11:37.137Z,3.17
2023-04-23T07:13:08.736Z,4.18
2023-04-23T07:14:40.651Z,3.28
2023-04-23T07:16:12.591Z,3.33
2023-04-23T07:17:44.315Z,2.58
2023-04-23T07:19:15.979Z,5.55
2023-04-23T07:20:47.576Z,2.35
2023-04-23T07:22:19.254Z,2.50
2023-04-23T07:23:51.015Z,2.42
2023-04-23T07:25:24.763Z,2.25
2023-04-23T07:26:56.429Z,2.33
2023-04-23T07:28:28.001Z,2.88
2023-04-23T07:29:59.633Z,2.35
2023-04-23T07:31:31.412Z,2.88
2023-04-23T07:33:03.482Z,4.40
2023-04-23T07:34:38.113Z,2.63
2023-04-23T07:36:09.928Z,3.15
2023-04-23T07:37:41.609Z,2.05
2023-04-23T07:39:13.470Z,4.50
2023-04-23T07:40:45.187Z,2.75
2023-04-23T07:42:16.871Z,2.53
2023-04-23T07:43:48.500Z,3.35
2023-04-23T07:45:20.225Z,3.38
2023-04-23T07:46:52.482Z,2.15
2023-04-23T07:48:24.171Z,2.80
2023-04-23T07:49:56.364Z,2.05
2023-04-23T07:51:28.823Z,2.92
2023-04-23T07:53:01.567Z,2.65
2023-04-23T07:54:33.585Z,2.40
2023-04-23T07:56:05.551Z,6.45
2023-04-23T07:57:37.812Z,4.05
2023-04-23T07:59:11.638Z,4.45
2023-04-23T08:00:43.626Z,2.20
2023-04-23T08:02:15.709Z,2.65
2023-04-23T08:03:47.819Z,2.88
2023-04-23T08:05:20.105Z,2.90
2023-04-23T08:06:52.418Z,3.05
2023-04-23T08:08:24.294Z,2.22
2023-04-23T08:09:56.150Z,5.35
2023-04-23T08:11:29.830Z,2.70
2023-04-23T08:13:02.412Z,2.75
2023-04-23T08:14:34.928Z,1.80
2023-04-23T08:16:10.893Z,2.80
2023-04-23T08:17:43.061Z,2.63
2023-04-23T08:19:14.843Z,2.20
2023-04-23T08:20:46.549Z,2.80
2023-04-23T08:22:19.788Z,2.10
2023-04-23T08:23:51.882Z,3.15
2023-04-23T08:25:23.691Z,3.08
2023-04-23T08:26:55.620Z,2.50
2023-04-23T08:28:27.949Z,2.67
2023-04-23T08:29:59.584Z,8.77
2023-04-23T08:31:31.390Z,2.55
2023-04-23T08:33:04.869Z,2.50
2023-04-23T08:34:38.105Z,2.90
2023-04-23T08:36:11.126Z,2.88
2023-04-23T08:37:43.071Z,3.15
2023-04-23T08:39:14.693Z,2.33
2023-04-23T08:40:49.437Z,2.53
2023-04-23T08:42:37.119Z,3.72
2023-04-23T08:44:26.018Z,2.47
2023-04-23T08:46:04.263Z,3.55
2023-04-23T08:47:40.610Z,2.88
2023-04-23T08:49:16.770Z,3.90
2023-04-23T08:50:48.843Z,3.33
2023-04-23T08:52:24.134Z,3.67
2023-04-23T08:53:59.931Z,2.50
2023-04-23T08:57:04.167Z,3.45
2023-04-23T08:58:37.015Z,3.53
2023-04-23T09:00:11.775Z,3.15
2023-04-23T09:01:43.998Z,3.00
2023-04-23T09:03:20.880Z,3.05
2023-04-23T09:04:56.200Z,2.75
2023-04-23T09:06:29.628Z,2.20
2023-04-23T09:08:02.007Z,2.40
2023-04-23T09:09:34.707Z,2.60
2023-04-23T09:11:07.411Z,2.88
2023-04-23T09:12:43.551Z,2.78
2023-04-23T09:14:15.676Z,4.10
2023-04-23T09:15:47.597Z,2.90
2023-04-23T09:17:19.605Z,3.92
2023-04-23T09:18:51.774Z,2.60
2023-04-23T09:20:23.610Z,2.75
2023-04-23T09:21:55.998Z,4.30
2023-04-23T09:23:27.767Z,3.47
2023-04-23T09:25:02.055Z,2.88
2023-04-23T09:26:33.660Z,3.58
2023-04-23T09:28:07.921Z,2.47
2023-04-23T09:29:39.742Z,3.03
2023-04-23T09:31:11.665Z,2.65
2023-04-23T09:32:45.810Z,2.70
2023-04-23T09:34:22.504Z,4.18
2023-04-23T09:35:54.653Z,2.72
2023-04-23T09:37:26.785Z,3.40
2023-04-23T09:38:58.982Z,4.63
2023-04-23T09:40:30.717Z,3.65
2023-04-23T09:42:06.098Z,2.78
2023-04-23T09:43:41.354Z,2.75
2023-04-23T09:45:13.824Z,2.88
2023-04-23T09:46:45.663Z,2.45
2023-04-23T09:48:17.314Z,4.25
2023-04-23T09:49:49.928Z,3.33
2023-04-23T09:51:25.400Z,2.58
2023-04-23T09:52:57.127Z,2.38
2023-04-23T09:54:28.786Z,3.08
2023-04-23T09:56:00.453Z,3.55
2023-04-23T09:57:37.566Z,3.25
2023-04-23T09:59:29.307Z,2.75
2023-04-23T10:01:15.342Z,3.53
2023-04-23T10:02:49.216Z,4.03
2023-04-23T10:04:25.808Z,2.70
2023-04-23T10:06:01.825Z,2.40
2023-04-23T10:07:35.197Z,2.30
2023-04-23T10:09:08.121Z,3.80
2023-04-23T10:10:56.784Z,3.58
2023-04-23T10:12:52.251Z,2.60
2023-04-23T10:14:26.879Z,2.85
2023-04-23T10:16:07.472Z,3.90
2023-04-23T10:17:51.637Z,3.58
2023-04-23T10:19:24.797Z,4.15
2023-04-23T10:20:57.915Z,3.53
2023-04-23T10:22:31.184Z,2.35
2023-04-23T10:24:03.786Z,2.42
2023-04-23T10:25:39.151Z,3.03
2023-04-23T10:27:23.972Z,3.15
2023-04-23T10:29:01.434Z,3.95
2023-04-23T10:30:35.992Z,3.90
2023-04-23T10:32:07.730Z,2.90
2023-04-23T10:33:53.538Z,2.10
2023-04-23T10:35:29.015Z,2.58
2023-04-23T10:37:02.311Z,2.35
2023-04-23T10:38:36.690Z,4.20
2023-04-23T10:40:14.315Z,2.10
2023-04-23T10:41:47.175Z,3.13
2023-04-23T10:43:19.718Z,3.88
2023-04-23T10:45:02.695Z,2.42
2023-04-23T10:46:39.606Z,3.28
2023-04-23T10:48:12.324Z,2.42
2023-04-23T10:49:44.793Z,2.55
2023-04-23T10:52:02.412Z,3.28
2023-04-23T10:53:19.828Z,2.47
2023-04-23T10:55:00.481Z,2.42
2023-04-23T10:56:32.252Z,3.75
2023-04-23T10:58:05.919Z,1.83
2023-04-23T10:59:52.172Z,3.25
2023-04-23T11:01:30.286Z,2.67
2023-04-23T11:03:02.542Z,2.90
2023-04-23T11:04:36.734Z,3.38
2023-04-23T11:06:09.193Z,3.13
2023-04-23T11:07:41.006Z,3.42
2023-04-23T11:09:36.408Z,3.53
2023-04-23T11:11:09.410Z,2.30
2023-04-23T11:12:41.338Z,2.72
2023-04-23T11:14:16.354Z,5.72
2023-04-23T11:15:48.072Z,2.63
2023-04-23T11:17:23.755Z,3.35
2023-04-23T11:21:00.899Z,3.10
2023-04-23T11:22:53.071Z,3.90
2023-04-23T11:24:48.221Z,3.80
2023-04-23T11:26:23.143Z,3.35
2023-04-23T11:27:56.816Z,4.47
2023-04-23T11:29:29.173Z,2.63
2023-04-23T11:31:00.919Z,3.10
2023-04-23T11:32:32.715Z,2.78
2023-04-23T11:34:05.876Z,3.22
2023-04-23T11:35:40.821Z,3.30
2023-04-23T11:37:17.546Z,3.05
2023-04-23T11:38:50.028Z,2.90
2023-04-23T11:40:22.186Z,4.03
2023-04-23T11:41:54.844Z,3.58
2023-04-23T11:43:29.327Z,2.38
2023-04-23T11:45:00.982Z,4.82
2023-04-23T11:46:32.845Z,2.53
2023-04-23T11:48:05.941Z,2.85
2023-04-23T11:49:38.718Z,2.22
2023-04-23T11:51:10.462Z,3.45
2023-04-23T11:52:43.870Z,3.30
2023-04-23T11:54:16.344Z,2.75
2023-04-23T11:55:49.398Z,3.17
2023-04-23T11:57:21.769Z,2.80
2023-04-23T11:59:01.235Z,3.83
2023-04-23T12:00:33.101Z,2.28
2023-04-23T12:02:05.008Z,2.85
2023-04-23T12:03:36.819Z,2.35
2023-04-23T12:05:09.564Z,3.45
2023-04-23T12:06:43.909Z,2.70
2023-04-23T12:08:19.576Z,3.58
2023-04-23T12:09:51.469Z,2.60
2023-04-23T12:11:24.358Z,2.65
2023-04-23T12:12:56.181Z,4.05
2023-04-23T12:14:30.653Z,2.10
2023-04-23T12:16:04.863Z,2.75
2023-04-23T12:17:36.721Z,3.00
2023-04-23T12:19:09.934Z,2.50
2023-04-23T12:20:41.603Z,3.67
2023-04-23T12:22:13.676Z,3.45
2023-04-23T12:23:45.676Z,3.40
2023-04-23T12:25:23.331Z,3.67
2023-04-23T12:26:58.533Z,2.53
2023-04-23T12:28:31.300Z,2.33
2023-04-23T12:30:06.367Z,3.10
2023-04-23T12:31:39.301Z,3.72
2023-04-23T12:33:12.105Z,3.03
2023-04-23T12:34:56.925Z,2.30
2023-04-23T12:36:32.697Z,3.45
2023-04-23T12:38:09.018Z,2.97
2023-04-23T12:39:41.218Z,4.43
2023-04-23T12:41:13.280Z,2.53
2023-04-23T12:42:45.420Z,2.40
2023-04-23T12:44:17.234Z,4.85
2023-04-23T12:45:49.552Z,2.13
2023-04-23T12:47:21.254Z,3.33
2023-04-23T12:48:53.022Z,2.00
2023-04-23T12:50:24.762Z,3.20
2023-04-23T12:51:57.938Z,4.43
2023-04-23T12:53:29.905Z,3.15
2023-04-23T12:55:02.126Z,3.90
2023-04-23T12:56:36.691Z,3.67
2023-04-23T12:58:09.856Z,3.75
2023-04-23T12:59:43.915Z,4.28
2023-04-23T13:01:16.449Z,3.50
2023-04-23T13:02:48.551Z,4.10
2023-04-23T13:04:20.811Z,3.00
2023-04-23T13:05:52.927Z,2.70
2023-04-23T13:07:24.698Z,2.72
2023-04-23T13:08:56.777Z,3.17
2023-04-23T13:10:31.003Z,2.83
2023-04-23T13:12:02.904Z,4.75
2023-04-23T13:13:34.623Z,3.40
2023-04-23T13:15:09.519Z,3.45
2023-04-23T13:16:43.246Z,3.03
2023-04-23T13:18:15.793Z,3.83
2023-04-23T13:19:48.482Z,3.13
2023-04-23T13:21:20.454Z,4.07
2023-04-23T13:22:52.311Z,4.25
2023-04-23T13:24:24.088Z,5.20
2023-04-23T13:25:55.939Z,2.60
2023-04-23T13:27:29.550Z,3.78
2023-04-23T13:29:02.140Z,3.20
2023-04-23T13:30:33.954Z,4.07
2023-04-23T13:32:06.524Z,3.30
2023-04-23T13:33:39.053Z,3.45
2023-04-23T13:35:11.077Z,4.07
2023-04-23T13:36:43.969Z,2.75
2023-04-23T13:38:16.023Z,2.40
2023-04-23T13:39:48.461Z,3.03
2023-04-23T13:41:20.320Z,3.20
2023-04-23T13:42:53.226Z,2.92
2023-04-23T13:44:25.439Z,3.90
2023-04-23T13:45:57.264Z,4.25
2023-04-23T13:47:31.685Z,2.60
2023-04-23T13:49:03.570Z,2.25
2023-04-23T13:50:35.773Z,3.08
2023-04-23T13:52:07.694Z,4.63
2023-04-23T13:53:39.535Z,3.40
2023-04-23T13:55:14.266Z,3.88
2023-04-23T13:56:46.873Z,3.10
2023-04-23T13:58:18.959Z,4.97
2023-04-23T13:59:50.747Z,3.13
2023-04-23T14:01:22.686Z,2.50
2023-04-23T14:02:55.756Z,5.13
2023-04-23T14:04:27.873Z,5.15
2023-04-23T14:05:59.966Z,3.70
2023-04-23T14:07:33.350Z,3.78
2023-04-23T14:09:05.310Z,3.90
2023-04-23T14:10:37.131Z,5.03
2023-04-23T14:12:09.602Z,2.00
2023-04-23T14:13:41.321Z,2.50
2023-04-23T14:15:13.207Z,6.85
2023-04-23T14:16:44.977Z,3.15
2023-04-23T14:18:16.714Z,3.67
2023-04-23T14:19:48.589Z,3.20
2023-04-23T14:21:20.320Z,3.95
2023-04-23T14:22:57.707Z,4.28
2023-04-23T14:24:34.963Z,4.80
2023-04-23T14:26:11.223Z,3.78
2023-04-23T14:27:51.389Z,3.65
2023-04-23T14:29:23.602Z,4.47
2023-04-23T14:30:56.973Z,3.42
2023-04-23T14:32:28.656Z,3.95
2023-04-23T14:34:03.097Z,3.40
2023-04-23T14:35:43.125Z,4.53
2023-04-23T14:37:17.202Z,3.67
2023-04-23T14:38:49.016Z,3.70
2023-04-23T14:40:21.155Z,3.10
2023-04-23T14:41:53.223Z,5.10
2023-04-23T14:43:25.049Z,4.78
2023-04-23T14:45:00.350Z,3.30
2023-04-23T14:46:32.188Z,5.78
2023-04-23T14:48:04.117Z,4.10
2023-04-23T14:49:35.992Z,2.58
2023-04-23T14:51:07.724Z,2.65
2023-04-23T14:52:39.801Z,5.80
2023-04-23T14:54:12.222Z,5.22
2023-04-23T14:55:44.046Z,6.00
2023-04-23T14:57:16.220Z,7.57
2023-04-23T14:58:47.917Z,3.67
2023-04-23T15:00:20.106Z,3.97
2023-04-23T15:01:53.510Z,3.70
2023-04-23T15:03:27.761Z,5.75
2023-04-23T15:04:59.869Z,4.40
2023-04-23T15:06:31.769Z,3.38
2023-04-23T15:08:04.998Z,2.58
2023-04-23T15:09:36.850Z,2.40
2023-04-23T15:11:13.475Z,2.88
2023-04-23T15:13:08.019Z,3.47
2023-04-23T15:14:39.909Z,2.90
2023-04-23T15:16:46.749Z,4.18
2023-04-23T15:18:20.536Z,4.38
2023-04-23T15:19:54.483Z,3.28
2023-04-23T15:21:26.380Z,3.88
2023-04-23T15:22:58.186Z,2.63
2023-04-23T15:24:30.068Z,3.83
2023-04-23T15:26:03.662Z,2.85
2023-04-23T15:27:35.687Z,2.97
2023-04-23T15:29:10.613Z,2.72
2023-04-23T15:30:44.974Z,3.90
2023-04-23T15:32:17.033Z,3.38
2023-04-23T15:33:49.104Z,3.45
2023-04-23T15:35:25.539Z,3.65
2023-04-23T15:36:57.339Z,2.55
2023-04-23T15:38:29.048Z,2.90
2023-04-23T15:40:00.758Z,3.75
2023-04-23T15:41:32.712Z,3.53
2023-04-23T15:43:05.317Z,6.35
2023-04-23T15:44:37.341Z,3.80
2023-04-23T15:46:09.402Z,4.05
2023-04-23T15:47:42.248Z,5.47
2023-04-23T15:49:14.131Z,2.95
2023-04-23T15:50:46.376Z,5.85
2023-04-23T15:52:18.394Z,3.10
2023-04-23T15:53:50.280Z,3.53
2023-04-23T15:55:22.149Z,4.32
2023-04-23T15:56:57.310Z,4.10
2023-04-23T15:58:29.550Z,3.55
2023-04-23T16:00:02.248Z,4.88
2023-04-23T16:01:44.124Z,4.20
2023-04-23T16:03:16.284Z,4.68
2023-04-23T16:04:48.419Z,3.85
2023-04-23T16:06:20.569Z,2.67
2023-04-23T16:07:52.841Z,7.85
2023-04-23T16:09:24.958Z,6.88
2023-04-23T16:10:58.741Z,4.82
2023-04-23T16:12:32.445Z,5.53
2023-04-23T16:14:05.872Z,5.05
2023-04-23T16:15:38.422Z,4.05
2023-04-23T16:17:10.746Z,4.20
2023-04-23T16:18:42.571Z,5.80
2023-04-23T16:20:14.434Z,6.53
2023-04-23T16:21:46.791Z,5.93
2023-04-23T16:23:19.059Z,3.30
2023-04-23T16:24:51.768Z,10.20
2023-04-23T16:26:24.852Z,7.53
2023-04-23T16:27:57.591Z,2.63
2023-04-23T16:29:29.677Z,2.90
2023-04-23T16:31:02.049Z,4.68
2023-04-23T16:32:36.130Z,4.82
2023-04-23T16:34:08.626Z,4.20
2023-04-23T16:35:40.766Z,5.30
2023-04-23T16:37:15.907Z,3.95
2023-04-23T16:38:49.469Z,3.63
2023-04-23T16:40:21.570Z,3.60
2023-04-23T16:41:53.352Z,4.40
2023-04-23T16:43:25.205Z,4.95
2023-04-23T16:44:57.130Z,4.80
2023-04-23T16:46:31.069Z,5.85
2023-04-23T16:48:03.285Z,3.83
2023-04-23T16:49:35.188Z,4.03
2023-04-23T16:51:07.293Z,5.30
2023-04-23T16:52:39.497Z,2.40
2023-04-23T16:54:12.084Z,7.97
2023-04-23T16:55:45.212Z,2.63
2023-04-23T16:57:19.164Z,4.10
2023-04-23T16:58:52.689Z,7.68
2023-04-23T17:00:25.226Z,4.47
2023-04-23T17:01:57.324Z,3.20
2023-04-23T17:03:29.816Z,2.92
2023-04-23T17:05:02.072Z,3.63
2023-04-23T17:06:34.090Z,3.20
2023-04-23T17:08:06.611Z,3.83
2023-04-23T17:09:38.388Z,6.60
2023-04-23T17:11:11.474Z,3.75
2023-04-23T17:12:43.313Z,3.92
2023-04-23T17:14:15.120Z,3.47
2023-04-23T17:15:48.293Z,3.53
2023-04-23T17:17:22.037Z,4.45
2023-04-23T17:18:57.300Z,3.70
2023-04-23T17:20:36.211Z,3.70
2023-04-23T17:22:12.747Z,4.13
2023-04-23T17:23:47.489Z,4.80
2023-04-23T17:25:20.417Z,2.63
2023-04-23T17:26:52.290Z,2.75
2023-04-23T17:28:25.412Z,2.95
2023-04-23T17:29:59.700Z,5.57
2023-04-23T17:31:32.045Z,4.75
2023-04-23T17:33:03.918Z,4.03
2023-04-23T17:34:36.633Z,6.88
2023-04-23T17:36:10.162Z,3.55
2023-04-23T17:37:42.892Z,3.45
2023-04-23T17:39:20.533Z,3.75
2023-04-23T17:40:53.400Z,2.90
2023-04-23T17:42:25.709Z,5.03
2023-04-23T17:43:58.786Z,4.25
2023-04-23T17:45:31.546Z,5.13
2023-04-23T17:47:04.022Z,4.40
2023-04-23T17:48:36.381Z,4.90
2023-04-23T17:50:12.061Z,7.18
2023-04-23T17:51:45.206Z,9.30
2023-04-23T17:53:18.375Z,4.90
2023-04-23T17:54:50.361Z,3.25
2023-04-23T17:56:23.085Z,5.60
2023-04-23T17:57:55.059Z,4.13
2023-04-23T17:59:26.852Z,4.95
2023-04-23T18:00:59.950Z,6.85
2023-04-23T18:02:33.373Z,3.75
2023-04-23T18:04:06.990Z,6.55
2023-04-23T18:05:41.216Z,4.38
2023-04-23T18:07:13.913Z,2.55
2023-04-23T18:08:46.642Z,4.50
2023-04-23T18:10:19.607Z,8.63
2023-04-23T18:11:52.624Z,6.05
2023-04-23T18:13:26.478Z,5.13
2023-04-23T18:14:59.670Z,7.70
2023-04-23T18:16:33.140Z,6.70
2023-04-23T18:18:05.402Z,5.97
2023-04-23T18:19:37.826Z,5.18
2023-04-23T18:21:09.751Z,5.05
2023-04-23T18:22:43.049Z,5.43
2023-04-23T18:24:19.089Z,6.10
2023-04-23T18:25:51.813Z,10.65
2023-04-23T18:27:25.912Z,9.88
2023-04-23T18:28:58.635Z,11.15
2023-04-23T18:30:31.615Z,10.98
2023-04-23T18:32:04.965Z,7.00
2023-04-23T18:33:42.355Z,11.35
2023-04-23T18:35:16.882Z,7.80
2023-04-23T18:36:51.355Z,12.98
2023-04-23T18:38:30.856Z,5.78
2023-04-23T18:40:04.675Z,25.13
2023-04-23T18:41:38.440Z,24.02
2023-04-23T18:43:11.233Z,24.10
2023-04-23T18:44:44.846Z,21.70
2023-04-23T18:46:18.918Z,16.85
2023-04-23T18:48:13.496Z,15.55
2023-04-23T18:49:53.498Z,15.80
2023-04-23T18:51:29.333Z,6.72
2023-04-23T18:53:02.352Z,7.85
2023-04-23T18:54:36.327Z,7.72
2023-04-23T18:56:09.151Z,6.30
2023-04-23T18:57:42.578Z,6.57
2023-04-23T18:59:16.256Z,5.35
2023-04-23T19:00:49.389Z,8.13
2023-04-23T19:02:34.392Z,6.25
2023-04-23T19:04:10.662Z,5.95
2023-04-23T19:05:45.095Z,6.63
2023-04-23T19:07:18.229Z,4.90
2023-04-23T19:08:51.916Z,6.97
2023-04-23T19:10:28.427Z,4.78
2023-04-23T19:12:01.266Z,3.58
2023-04-23T19:13:34.731Z,4.18
2023-04-23T19:15:08.445Z,4.43
2023-04-23T19:16:41.808Z,4.60
2023-04-23T19:18:15.261Z,2.53
2023-04-23T19:19:48.393Z,2.25
2023-04-23T19:21:21.616Z,3.78
2023-04-23T19:22:54.012Z,3.58
2023-04-23T19:24:26.978Z,4.30
2023-04-23T19:26:00.143Z,3.42
2023-04-23T19:27:34.387Z,2.70
2023-04-23T19:29:09.313Z,4.28
2023-04-23T19:30:42.650Z,3.50
2023-04-23T19:32:16.244Z,1.90
2023-04-23T19:33:49.687Z,4.63
2023-04-23T19:35:23.706Z,2.30
2023-04-23T19:36:57.069Z,2.70
2023-04-23T19:38:30.250Z,3.22
2023-04-23T19:40:02.074Z,2.42
2023-04-23T19:41:34.845Z,3.03
2023-04-23T19:43:08.026Z,3.88
2023-04-23T19:44:40.462Z,2.65
2023-04-23T19:46:13.975Z,3.95
2023-04-23T19:47:46.384Z,2.05
2023-04-23T19:49:19.818Z,2.90
2023-04-23T19:50:53.954Z,2.65
2023-04-23T19:52:30.715Z,2.30
2023-04-23T19:54:03.912Z,2.03
2023-04-23T19:55:36.638Z,2.50
2023-04-23T19:57:09.224Z,2.10
2023-04-23T19:58:42.787Z,2.38
2023-04-23T20:00:15.025Z,2.30
2023-04-23T20:01:48.320Z,3.42
2023-04-23T20:03:20.545Z,2.22
2023-04-23T20:04:53.634Z,2.78
2023-04-23T20:06:26.648Z,1.80
2023-04-23T20:08:00.453Z,4.72
2023-04-23T20:09:32.720Z,2.95
2023-04-23T20:11:04.958Z,3.53
2023-04-23T20:12:37.476Z,2.47
2023-04-23T20:14:11.796Z,2.40
2023-04-23T20:15:45.271Z,4.13
2023-04-23T20:17:18.145Z,2.90
2023-04-23T20:18:51.366Z,4.57
2023-04-23T20:20:25.965Z,4.28
2023-04-23T20:21:58.655Z,2.25
2023-04-23T20:23:31.099Z,3.42
2023-04-23T20:25:04.366Z,4.30
2023-04-23T20:26:39.600Z,2.47
2023-04-23T20:28:12.887Z,2.08
2023-04-23T20:29:46.040Z,2.40
2023-04-23T20:31:20.025Z,2.13
2023-04-23T20:32:54.005Z,2.85
2023-04-23T20:34:27.611Z,2.45
2023-04-23T20:36:02.128Z,3.05
2023-04-23T20:37:35.233Z,4.20
2023-04-23T20:39:08.546Z,4.90
2023-04-23T20:40:41.619Z,3.78
2023-04-23T20:42:15.390Z,3.63
2023-04-23T20:43:51.882Z,2.90
2023-04-23T20:45:24.401Z,2.17